createdAt,value
2023-02-04T00:00:26.343Z,65.30
2023-02-04T00:02:54.262Z,65.20
2023-02-04T00:05:22.157Z,65.20
2023-02-04T00:07:50.154Z,65.20
2023-02-04T00:10:18.915Z,65.20
2023-02-04T00:12:48.111Z,65.10
2023-02-04T00:15:16.004Z,65.10
2023-02-04T00:17:43.849Z,65.00
2023-02-04T00:20:12.497Z,64.90
2023-02-04T00:22:40.344Z,64.90
2023-02-04T00:25:09.115Z,64.80
2023-02-04T00:27:36.978Z,64.90
2023-02-04T00:30:07.108Z,64.80
2023-02-04T00:32:35.174Z,64.80
2023-02-04T00:35:04.698Z,64.80
2023-02-04T00:37:32.702Z,64.70
2023-02-04T00:40:00.538Z,64.70
2023-02-04T00:42:28.527Z,64.70
2023-02-04T00:44:56.431Z,64.70
2023-02-04T00:47:26.203Z,64.60
2023-02-04T00:49:54.045Z,64.50
2023-02-04T00:52:21.876Z,64.50
2023-02-04T00:54:49.919Z,64.50
2023-02-04T00:57:17.816Z,64.50
2023-02-04T00:59:45.736Z,64.50
2023-02-04T01:02:13.596Z,64.50
2023-02-04T01:04:42.801Z,64.70
2023-02-04T01:07:10.701Z,64.80
2023-02-04T01:09:38.620Z,64.70
2023-02-04T01:12:06.537Z,64.70
2023-02-04T01:14:34.389Z,64.60
2023-02-04T01:17:02.270Z,64.60
2023-02-04T01:19:30.142Z,64.50
2023-02-04T01:21:59.374Z,64.50
2023-02-04T01:24:27.256Z,64.50
2023-02-04T01:27:13.506Z,64.40
2023-02-04T01:29:41.352Z,64.40
2023-02-04T01:32:09.263Z,64.40
2023-02-04T01:34:37.128Z,64.20
2023-02-04T01:37:06.706Z,64.20
2023-02-04T01:39:34.935Z,64.20
2023-02-04T01:42:02.842Z,64.20
2023-02-04T01:44:31.146Z,64.10
2023-02-04T01:46:59.038Z,64.00
2023-02-04T01:49:26.948Z,63.90
2023-02-04T01:51:54.821Z,64.00
2023-02-04T01:54:23.993Z,63.90
2023-02-04T01:56:51.864Z,63.80
2023-02-04T01:59:19.835Z,63.80
2023-02-04T02:01:48.502Z,63.90
2023-02-04T02:04:17.190Z,63.90
2023-02-04T02:06:46.695Z,63.90
2023-02-04T02:09:14.533Z,63.80
2023-02-04T02:11:45.638Z,63.90
2023-02-04T02:14:13.566Z,63.70
2023-02-04T02:16:41.510Z,63.80
2023-02-04T02:19:09.988Z,63.80
2023-02-04T02:21:40.461Z,63.70
2023-02-04T02:24:26.746Z,63.70
2023-02-04T02:26:54.749Z,63.70
2023-02-04T02:29:25.522Z,63.60
2023-02-04T02:31:53.712Z,63.60
2023-02-04T02:34:21.579Z,63.60
2023-02-04T02:36:49.439Z,63.50
2023-02-04T02:39:18.320Z,63.40
2023-02-04T02:41:47.520Z,63.20
2023-02-04T02:44:15.481Z,63.10
2023-02-04T02:46:43.341Z,63.20
2023-02-04T02:49:13.092Z,63.10
2023-02-04T02:51:40.982Z,63.20
2023-02-04T02:54:11.907Z,63.20
2023-02-04T02:56:39.983Z,63.20
2023-02-04T02:59:16.266Z,63.20
2023-02-04T03:01:45.138Z,63.20
2023-02-04T03:04:13.022Z,63.40
2023-02-04T03:06:40.885Z,63.30
2023-02-04T03:09:08.795Z,63.20
2023-02-04T03:11:36.754Z,63.40
2023-02-04T03:14:04.787Z,63.30
2023-02-04T03:16:34.245Z,63.30
2023-02-04T03:19:02.132Z,63.10
2023-02-04T03:21:30.044Z,63.20
2023-02-04T03:23:57.928Z,63.20
2023-02-04T03:26:25.968Z,63.10
2023-02-04T03:28:54.413Z,63.10
2023-02-04T03:31:22.332Z,63.00
2023-02-04T03:33:51.594Z,62.90
2023-02-04T03:36:19.931Z,62.70
2023-02-04T03:38:47.785Z,62.70
2023-02-04T03:41:15.666Z,62.70
2023-02-04T03:43:43.525Z,62.60
2023-02-04T03:46:11.384Z,62.70
2023-02-04T03:48:39.212Z,62.70
2023-02-04T03:51:08.532Z,62.70
2023-02-04T03:53:36.423Z,62.60
2023-02-04T03:56:04.530Z,62.60
2023-02-04T03:58:32.381Z,62.60
2023-02-04T04:01:00.226Z,62.60
2023-02-04T04:03:28.112Z,62.50
2023-02-04T04:05:55.963Z,62.50
2023-02-04T04:08:25.591Z,62.50
2023-02-04T04:10:53.472Z,62.50
2023-02-04T04:13:21.295Z,62.50
2023-02-04T04:15:49.154Z,62.50
2023-02-04T04:18:16.988Z,62.50
2023-02-04T04:20:45.023Z,62.50
2023-02-04T04:23:12.937Z,62.30
2023-02-04T04:25:42.117Z,62.40
2023-02-04T04:28:10.071Z,62.40
2023-02-04T04:30:38.034Z,62.30
2023-02-04T04:33:05.911Z,62.40
2023-02-04T04:35:34.727Z,62.30
2023-02-04T04:38:02.672Z,62.30
2023-02-04T04:40:30.993Z,62.30
2023-02-04T04:43:00.549Z,62.30
2023-02-04T04:45:28.380Z,62.20
2023-02-04T04:47:56.244Z,62.00
2023-02-04T04:50:24.277Z,62.00
2023-02-04T04:52:52.138Z,62.00
2023-02-04T04:55:20.153Z,62.00
2023-02-04T04:57:47.984Z,62.00
2023-02-04T05:00:19.051Z,61.90
2023-02-04T05:02:46.909Z,61.80
2023-02-04T05:05:14.834Z,61.80
2023-02-04T05:07:42.720Z,61.90
2023-02-04T05:10:11.168Z,61.80
2023-02-04T05:12:39.248Z,61.90
2023-02-04T05:15:07.388Z,61.80
2023-02-04T05:17:36.629Z,61.60
2023-02-04T05:20:04.864Z,61.70
2023-02-04T05:22:32.748Z,61.70
2023-02-04T05:25:00.624Z,61.60
2023-02-04T05:27:28.569Z,61.60
2023-02-04T05:29:56.428Z,61.70
2023-02-04T05:32:24.289Z,61.70
2023-02-04T05:34:53.459Z,61.60
2023-02-04T05:37:21.341Z,61.50
2023-02-04T05:39:49.305Z,61.50
2023-02-04T05:42:17.162Z,61.40
2023-02-04T05:44:45.055Z,61.30
2023-02-04T05:47:12.945Z,61.40
2023-02-04T05:49:40.823Z,61.40
2023-02-04T05:52:10.032Z,61.30
2023-02-04T05:54:37.896Z,61.20
2023-02-04T05:57:05.820Z,61.20
2023-02-04T05:59:33.703Z,61.20
2023-02-04T06:02:01.610Z,61.20
2023-02-04T06:04:29.515Z,61.10
2023-02-04T06:06:57.353Z,61.20
2023-02-04T06:09:26.600Z,61.10
2023-02-04T06:11:54.432Z,61.10
2023-02-04T06:14:22.310Z,61.10
2023-02-04T06:16:50.220Z,61.00
2023-02-04T06:19:18.117Z,61.00
2023-02-04T06:21:45.993Z,60.90
2023-02-04T06:24:13.892Z,60.90
2023-02-04T06:26:43.081Z,60.90
2023-02-04T06:29:10.994Z,60.70
2023-02-04T06:31:39.054Z,60.70
2023-02-04T06:34:07.082Z,60.80
2023-02-04T06:36:34.904Z,60.60
2023-02-04T06:39:02.743Z,60.70
2023-02-04T06:41:30.583Z,60.60
2023-02-04T06:43:59.836Z,60.60
2023-02-04T06:46:27.746Z,60.70
2023-02-04T06:48:56.342Z,60.70
2023-02-04T06:51:24.213Z,60.50
2023-02-04T06:53:52.593Z,60.40
2023-02-04T06:56:20.474Z,60.40
2023-02-04T06:58:48.341Z,60.50
2023-02-04T07:01:17.561Z,60.30
2023-02-04T07:03:45.429Z,60.40
2023-02-04T07:06:13.296Z,60.20
2023-02-04T07:08:41.160Z,60.20
2023-02-04T07:11:09.028Z,60.10
2023-02-04T07:13:36.922Z,60.30
2023-02-04T07:16:06.170Z,60.20
2023-02-04T07:18:35.508Z,60.20
2023-02-04T07:21:03.457Z,60.10
2023-02-04T07:23:31.364Z,60.00
2023-02-04T07:25:59.516Z,59.90
2023-02-04T07:28:27.857Z,59.90
2023-02-04T07:30:55.814Z,59.80
2023-02-04T07:33:23.782Z,59.70
2023-02-04T07:35:53.072Z,59.80
2023-02-04T07:38:20.939Z,59.70
2023-02-04T07:40:48.895Z,59.50
2023-02-04T07:43:16.989Z,59.50
2023-02-04T07:45:44.820Z,59.50
2023-02-04T07:48:12.704Z,59.40
2023-02-04T07:50:40.592Z,59.30
2023-02-04T07:53:09.829Z,59.40
2023-02-04T07:55:37.736Z,59.40
2023-02-04T07:58:05.749Z,59.20
2023-02-04T08:00:34.175Z,59.40
2023-02-04T08:03:02.119Z,59.40
2023-02-04T08:05:30.407Z,59.40
2023-02-04T08:07:58.597Z,59.30
2023-02-04T08:10:27.937Z,59.30
2023-02-04T08:12:55.855Z,59.10
2023-02-04T08:15:23.748Z,59.30
2023-02-04T08:17:51.628Z,59.20
2023-02-04T08:20:19.729Z,59.20
2023-02-04T08:22:47.647Z,59.20
2023-02-04T08:25:15.599Z,59.40
2023-02-04T08:27:44.818Z,59.40
2023-02-04T08:30:13.240Z,59.30
2023-02-04T08:32:41.086Z,59.20
2023-02-04T08:35:09.620Z,58.70
2023-02-04T08:37:37.464Z,59.00
2023-02-04T08:40:06.208Z,58.80
2023-02-04T08:42:34.752Z,58.80
2023-02-04T08:45:04.191Z,58.80
2023-02-04T08:47:32.081Z,58.60
2023-02-04T08:50:00.044Z,58.60
2023-02-04T08:52:27.899Z,58.70
2023-02-04T08:54:55.742Z,58.60
2023-02-04T08:57:23.622Z,59.00
2023-02-04T08:59:51.511Z,58.90
2023-02-04T09:02:20.892Z,59.10
2023-02-04T09:04:48.821Z,59.60
2023-02-04T09:07:16.655Z,59.50
2023-02-04T09:09:44.543Z,59.70
2023-02-04T09:12:12.439Z,59.70
2023-02-04T09:14:40.300Z,59.80
2023-02-04T09:17:08.198Z,59.70
2023-02-04T09:19:37.525Z,59.80
2023-02-04T09:22:05.412Z,60.00
2023-02-04T09:24:33.322Z,59.60
2023-02-04T09:27:01.194Z,59.40
2023-02-04T09:29:29.277Z,59.40
2023-02-04T09:31:58.112Z,59.10
2023-02-04T09:34:26.093Z,59.20
2023-02-04T09:36:55.291Z,59.00
2023-02-04T09:39:23.191Z,59.00
2023-02-04T09:41:51.089Z,59.00
2023-02-04T09:44:20.172Z,59.20
2023-02-04T09:46:50.525Z,59.30
2023-02-04T09:49:18.545Z,59.60
2023-02-04T09:51:46.604Z,59.90
2023-02-04T09:54:16.623Z,60.20
2023-02-04T09:56:44.566Z,60.30
2023-02-04T09:59:13.282Z,60.30
2023-02-04T10:01:41.378Z,60.20
2023-02-04T10:04:10.834Z,60.20
2023-02-04T10:06:38.754Z,60.40
2023-02-04T10:09:06.639Z,60.30
2023-02-04T10:11:37.610Z,60.40
2023-02-04T10:14:05.498Z,60.60
2023-02-04T10:16:34.118Z,60.60
2023-02-04T10:19:03.502Z,60.80
2023-02-04T10:21:32.985Z,60.90
2023-02-04T10:24:02.049Z,60.90
2023-02-04T10:26:31.143Z,60.90
2023-02-04T10:29:01.432Z,60.80
2023-02-04T10:31:34.038Z,60.70
2023-02-04T10:34:11.419Z,60.70
2023-02-04T10:36:39.502Z,60.60
2023-02-04T10:39:10.666Z,59.80
2023-02-04T10:41:40.072Z,60.40
2023-02-04T10:44:12.084Z,60.40
2023-02-04T10:46:39.941Z,60.20
2023-02-04T10:49:15.597Z,60.20
2023-02-04T10:51:43.534Z,60.20
2023-02-04T10:54:31.109Z,60.40
2023-02-04T10:57:00.539Z,60.80
2023-02-04T10:59:29.780Z,61.00
2023-02-04T11:01:58.092Z,61.40
2023-02-04T11:04:26.051Z,61.70
2023-02-04T11:06:54.413Z,61.90
2023-02-04T11:09:22.284Z,61.90
2023-02-04T11:11:50.782Z,61.80
2023-02-04T11:14:30.476Z,61.70
2023-02-04T11:17:01.060Z,61.70
2023-02-04T11:19:36.785Z,61.70
2023-02-04T11:22:09.724Z,61.40
2023-02-04T11:24:37.718Z,61.20
2023-02-04T11:27:09.939Z,61.10
2023-02-04T11:29:39.393Z,61.00
2023-02-04T11:32:08.344Z,61.90
2023-02-04T11:34:47.548Z,60.90
2023-02-04T11:37:28.767Z,60.80
2023-02-04T11:39:56.738Z,60.90
2023-02-04T11:42:25.501Z,60.70
2023-02-04T11:44:55.878Z,60.50
2023-02-04T11:47:24.676Z,60.40
2023-02-04T11:49:56.131Z,60.30
2023-02-04T11:52:24.032Z,60.20
2023-02-04T11:54:55.998Z,60.10
2023-02-04T11:57:23.868Z,60.00
2023-02-04T11:59:51.723Z,60.00
2023-02-04T12:02:21.877Z,59.90
2023-02-04T12:04:56.939Z,60.00
2023-02-04T12:07:28.704Z,59.90
2023-02-04T12:09:56.923Z,59.80
2023-02-04T12:12:26.242Z,60.20
2023-02-04T12:15:03.077Z,60.00
2023-02-04T12:17:32.280Z,59.70
2023-02-04T12:20:00.177Z,59.60
2023-02-04T12:22:28.133Z,59.50
2023-02-04T12:24:56.138Z,59.40
2023-02-04T12:27:24.168Z,59.50
2023-02-04T12:29:52.093Z,59.40
2023-02-04T12:32:20.086Z,59.50
2023-02-04T12:34:49.287Z,59.50
2023-02-04T12:37:17.194Z,59.40
2023-02-04T12:39:45.066Z,59.30
2023-02-04T12:42:12.914Z,59.30
2023-02-04T12:44:40.842Z,59.20
2023-02-04T12:47:08.738Z,59.20
2023-02-04T12:49:38.026Z,59.20
2023-02-04T12:52:07.465Z,59.10
2023-02-04T12:54:35.711Z,59.40
2023-02-04T12:57:07.087Z,59.20
2023-02-04T12:59:37.356Z,59.20
2023-02-04T13:02:05.254Z,59.10
2023-02-04T13:04:33.238Z,59.10
2023-02-04T13:07:03.342Z,59.00
2023-02-04T13:09:32.914Z,59.00
2023-02-04T13:12:00.858Z,59.00
2023-02-04T13:14:28.747Z,58.90
2023-02-04T13:16:56.625Z,59.00
2023-02-04T13:19:24.551Z,58.80
2023-02-04T13:21:52.424Z,59.30
2023-02-04T13:24:20.332Z,59.40
2023-02-04T13:26:49.923Z,59.30
2023-02-04T13:29:17.982Z,59.40
2023-02-04T13:31:45.919Z,59.50
2023-02-04T13:34:13.837Z,59.80
2023-02-04T13:36:43.574Z,59.80
2023-02-04T13:39:11.600Z,59.60
2023-02-04T13:41:39.502Z,59.40
2023-02-04T13:44:09.037Z,59.30
2023-02-04T13:46:36.919Z,59.20
2023-02-04T13:49:04.981Z,59.10
2023-02-04T13:51:32.892Z,59.00
2023-02-04T13:54:00.897Z,60.10
2023-02-04T13:56:28.845Z,59.40
2023-02-04T13:58:56.871Z,59.70
2023-02-04T14:01:26.251Z,59.40
2023-02-04T14:03:54.202Z,59.70
2023-02-04T14:06:22.616Z,59.80
2023-02-04T14:08:50.474Z,59.50
2023-02-04T14:11:18.377Z,59.80
2023-02-04T14:13:46.229Z,60.00
2023-02-04T14:16:14.299Z,60.10
2023-02-04T14:18:43.611Z,60.20
2023-02-04T14:21:11.468Z,60.20
2023-02-04T14:23:39.435Z,60.20
2023-02-04T14:26:07.385Z,60.00
2023-02-04T14:28:35.347Z,59.90
2023-02-04T14:31:03.281Z,59.90
2023-02-04T14:33:31.422Z,60.00
2023-02-04T14:36:00.643Z,59.90
2023-02-04T14:38:30.926Z,60.00
2023-02-04T14:40:59.320Z,60.00
2023-02-04T14:43:27.587Z,60.00
2023-02-04T14:45:55.485Z,59.90
2023-02-04T14:48:23.413Z,59.80
2023-02-04T14:50:51.316Z,60.00
2023-02-04T14:53:20.576Z,59.80
2023-02-04T14:55:48.518Z,59.70
2023-02-04T14:58:16.441Z,59.60
2023-02-04T15:00:44.296Z,59.50
2023-02-04T15:03:12.219Z,59.60
2023-02-04T15:05:40.076Z,59.70
2023-02-04T15:08:07.984Z,59.60
2023-02-04T15:10:37.236Z,59.60
2023-02-04T15:13:05.287Z,59.60
2023-02-04T15:15:33.155Z,59.60
2023-02-04T15:18:01.005Z,60.60
2023-02-04T15:20:28.855Z,59.50
2023-02-04T15:22:56.901Z,59.50
2023-02-04T15:25:25.529Z,59.50
2023-02-04T15:27:54.840Z,59.40
2023-02-04T15:30:22.841Z,59.40
2023-02-04T15:32:50.736Z,59.50
2023-02-04T15:35:18.634Z,59.50
2023-02-04T15:37:46.646Z,59.50
2023-02-04T15:40:14.515Z,59.30
2023-02-04T15:42:42.961Z,60.40
2023-02-04T15:45:12.260Z,59.30
2023-02-04T15:47:40.138Z,59.30
2023-02-04T15:50:11.043Z,59.40
2023-02-04T15:52:39.010Z,59.40
2023-02-04T15:55:07.640Z,59.20
2023-02-04T15:57:36.653Z,59.40
2023-02-04T16:00:05.493Z,59.50
2023-02-04T16:02:34.882Z,59.40
2023-02-04T16:05:02.900Z,59.30
2023-02-04T16:07:30.943Z,59.30
2023-02-04T16:09:58.809Z,59.20
2023-02-04T16:12:26.778Z,59.20
2023-02-04T16:14:54.672Z,59.20
2023-02-04T16:17:22.586Z,59.30
2023-02-04T16:19:51.817Z,59.40
2023-02-04T16:22:19.678Z,59.40
2023-02-04T16:24:47.624Z,59.20
2023-02-04T16:27:17.149Z,59.30
2023-02-04T16:29:45.096Z,59.20
2023-02-04T16:32:13.008Z,59.20
2023-02-04T16:34:40.857Z,59.10
2023-02-04T16:37:10.200Z,59.20
2023-02-04T16:39:38.965Z,59.10
2023-02-04T16:42:08.992Z,59.30
2023-02-04T16:44:37.294Z,59.20
2023-02-04T16:47:05.383Z,59.30
2023-02-04T16:49:33.403Z,59.40
2023-02-04T16:52:01.680Z,59.50
2023-02-04T16:54:31.070Z,59.50
2023-02-04T16:57:00.337Z,59.60
2023-02-04T16:59:28.453Z,59.80
2023-02-04T17:02:27.316Z,59.80
2023-02-04T17:04:55.477Z,59.90
2023-02-04T17:07:23.534Z,59.50
2023-02-04T17:09:52.777Z,59.60
2023-02-04T17:12:20.812Z,59.50
2023-02-04T17:14:48.827Z,60.20
2023-02-04T17:17:16.845Z,60.40
2023-02-04T17:19:44.796Z,60.40
2023-02-04T17:22:12.669Z,60.60
2023-02-04T17:24:43.694Z,60.90
2023-02-04T17:27:12.959Z,61.40
2023-02-04T17:29:40.904Z,62.00
2023-02-04T17:32:12.188Z,62.20
2023-02-04T17:34:40.181Z,62.40
2023-02-04T17:37:08.104Z,62.70
2023-02-04T17:39:36.108Z,62.80
2023-02-04T17:42:04.270Z,63.00
2023-02-04T17:44:33.721Z,63.00
2023-02-04T17:47:01.914Z,63.10
2023-02-04T17:49:32.810Z,62.80
2023-02-04T17:52:01.542Z,63.40
2023-02-04T17:54:29.633Z,63.60
2023-02-04T17:56:57.680Z,63.50
2023-02-04T17:59:26.016Z,64.10
2023-02-04T18:01:55.828Z,64.20
2023-02-04T18:04:24.041Z,64.50
2023-02-04T18:06:52.040Z,64.60
2023-02-04T18:09:19.912Z,64.80
2023-02-04T18:11:47.871Z,64.90
2023-02-04T18:14:17.824Z,64.90
2023-02-04T18:16:45.906Z,65.00
2023-02-04T18:19:20.024Z,65.20
2023-02-04T18:21:48.021Z,65.10
2023-02-04T18:24:18.934Z,65.30
2023-02-04T18:26:48.073Z,65.10
2023-02-04T18:29:33.127Z,65.20
2023-02-04T18:32:01.865Z,65.10
2023-02-04T18:34:36.313Z,65.10
2023-02-04T18:37:26.990Z,65.30
2023-02-04T18:39:56.977Z,65.40
2023-02-04T18:42:26.483Z,65.10
2023-02-04T18:44:56.743Z,65.00
2023-02-04T18:47:29.538Z,65.00
2023-02-04T18:49:59.931Z,65.10
2023-02-04T18:52:28.296Z,65.30
2023-02-04T18:54:56.550Z,65.30
2023-02-04T18:57:30.536Z,65.40
2023-02-04T19:00:23.452Z,65.40
2023-02-04T19:02:52.913Z,65.30
2023-02-04T19:05:26.929Z,65.50
2023-02-04T19:08:18.118Z,65.50
2023-02-04T19:10:45.994Z,65.40
2023-02-04T19:13:18.520Z,65.30
2023-02-04T19:15:46.906Z,65.40
2023-02-04T19:18:23.333Z,65.40
2023-02-04T19:20:52.803Z,65.40
2023-02-04T19:23:21.900Z,65.30
2023-02-04T19:25:50.412Z,65.20
2023-02-04T19:28:28.963Z,65.10
2023-02-04T19:31:03.189Z,65.00
2023-02-04T19:33:37.478Z,64.90
2023-02-04T19:36:22.811Z,64.90
2023-02-04T19:38:52.671Z,64.90
2023-02-04T19:41:29.026Z,65.80
2023-02-04T19:44:25.386Z,65.30
2023-02-04T19:46:53.581Z,65.30
2023-02-04T19:49:24.107Z,65.40
2023-02-04T19:51:54.828Z,65.50
2023-02-04T19:54:25.066Z,65.70
2023-02-04T19:56:53.424Z,65.60
2023-02-04T19:59:26.284Z,65.60
2023-02-04T20:01:57.900Z,65.60
2023-02-04T20:04:25.911Z,65.60
2023-02-04T20:06:55.252Z,65.70
2023-02-04T20:09:25.233Z,65.70
2023-02-04T20:11:58.322Z,65.80
2023-02-04T20:14:47.197Z,65.90
2023-02-04T20:17:29.529Z,66.10
2023-02-04T20:19:57.375Z,66.10
2023-02-04T20:22:48.659Z,66.10
2023-02-04T20:25:45.521Z,66.20
2023-02-04T20:28:32.778Z,66.10
2023-02-04T20:31:01.514Z,66.20
2023-02-04T20:33:33.722Z,66.20
2023-02-04T20:36:38.091Z,66.20
2023-02-04T20:39:43.364Z,66.50
2023-02-04T20:42:44.831Z,66.10
2023-02-04T20:45:20.950Z,66.20
2023-02-04T20:47:49.459Z,66.00
2023-02-04T20:50:38.138Z,65.90
2023-02-04T20:53:18.100Z,65.80
2023-02-04T20:55:50.411Z,65.80
2023-02-04T20:58:19.884Z,65.60
2023-02-04T21:00:52.014Z,65.70
2023-02-04T21:03:22.285Z,65.20
2023-02-04T21:05:50.376Z,65.30
2023-02-04T21:08:29.829Z,65.10
2023-02-04T21:10:59.222Z,65.20
2023-02-04T21:13:27.160Z,65.00
2023-02-04T21:15:55.154Z,64.60
2023-02-04T21:18:23.062Z,65.00
2023-02-04T21:20:51.001Z,65.00
2023-02-04T21:23:19.075Z,65.30
2023-02-04T21:25:46.979Z,65.30
2023-02-04T21:28:16.489Z,65.10
2023-02-04T21:30:44.571Z,65.30
2023-02-04T21:33:12.660Z,65.40
2023-02-04T21:35:40.670Z,65.50
2023-02-04T21:38:08.837Z,65.60
2023-02-04T21:40:37.922Z,65.50
2023-02-04T21:43:07.922Z,65.60
2023-02-04T21:45:37.571Z,65.60
2023-02-04T21:48:06.095Z,65.50
2023-02-04T21:50:34.333Z,65.50
2023-02-04T21:53:02.219Z,65.50
2023-02-04T21:55:30.337Z,65.50
2023-02-04T21:57:58.295Z,65.50
2023-02-04T22:00:26.302Z,65.50
2023-02-04T22:02:55.577Z,65.50
2023-02-04T22:05:23.483Z,65.50
2023-02-04T22:07:51.596Z,65.40
2023-02-04T22:10:20.891Z,65.30
2023-02-04T22:12:48.826Z,65.40
2023-02-04T22:15:16.888Z,65.50
2023-02-04T22:17:44.882Z,65.30
2023-02-04T22:20:15.560Z,65.30
2023-02-04T22:22:43.962Z,65.40
2023-02-04T22:25:12.272Z,65.50
2023-02-04T22:27:40.273Z,65.50
2023-02-04T22:30:08.903Z,65.50
2023-02-04T22:32:36.818Z,65.50
2023-02-04T22:35:04.886Z,65.60
2023-02-04T22:37:34.357Z,65.60
2023-02-04T22:40:02.247Z,65.60
2023-02-04T22:42:30.144Z,65.50
2023-02-04T22:44:58.083Z,65.50
2023-02-04T22:47:26.131Z,65.50
2023-02-04T22:49:54.002Z,65.50
2023-02-04T22:52:21.835Z,65.50
2023-02-04T22:54:51.047Z,65.40
2023-02-04T22:57:18.917Z,65.40
2023-02-04T22:59:46.782Z,65.40
2023-02-04T23:02:14.798Z,65.30
2023-02-04T23:04:44.127Z,65.40
2023-02-04T23:07:12.508Z,65.50
2023-02-04T23:09:40.596Z,65.40
2023-02-04T23:12:15.643Z,65.50
2023-02-04T23:14:44.210Z,65.50
2023-02-04T23:17:12.241Z,65.60
2023-02-04T23:19:40.235Z,65.60
2023-02-04T23:22:08.190Z,65.70
2023-02-04T23:24:36.102Z,65.70
2023-02-04T23:27:04.212Z,65.70
2023-02-04T23:29:35.260Z,65.70
2023-02-04T23:32:03.355Z,65.70
2023-02-04T23:34:31.296Z,65.60
2023-02-04T23:36:59.140Z,65.50
2023-02-04T23:39:26.997Z,65.40
2023-02-04T23:41:55.469Z,65.40
2023-02-04T23:44:23.417Z,65.30
2023-02-04T23:46:52.639Z,65.30
2023-02-04T23:49:20.530Z,65.20
2023-02-04T23:51:48.424Z,65.20
2023-02-04T23:54:16.311Z,65.10
2023-02-04T23:56:44.184Z,65.10
2023-02-04T23:59:12.021Z,65.00
